sensor_id;sensor_type;location;lat;lon;timestamp;P1;durP1;ratioP1;P2;durP2;ratioP2
35743;SDS011;21867;52.012;4.324;2023-10-13T00:02:22;9.33;;;5.80;;
35743;SDS011;21867;52.012;4.324;2023-10-13T00:04:49;8.50;;;6.47;;
35743;SDS011;21867;52.012;4.324;2023-10-13T00:07:16;10.90;;;6.37;;
35743;SDS011;21867;52.012;4.324;2023-10-13T00:12:31;9.53;;;5.10;;
35743;SDS011;21867;52.012;4.324;2023-10-13T00:15:00;6.33;;;4.57;;
35743;SDS011;21867;52.012;4.324;2023-10-13T00:17:27;5.73;;;4.97;;
35743;SDS011;21867;52.012;4.324;2023-10-13T00:23:10;10.13;;;5.83;;
35743;SDS011;21867;52.012;4.324;2023-10-13T00:25:41;7.13;;;5.53;;
35743;SDS011;21867;52.012;4.324;2023-10-13T00:28:08;10.53;;;6.57;;
35743;SDS011;21867;52.012;4.324;2023-10-13T00:30:37;9.50;;;6.27;;
35743;SDS011;21867;52.012;4.324;2023-10-13T00:33:04;8.73;;;7.43;;
35743;SDS011;21867;52.012;4.324;2023-10-13T00:35:32;11.93;;;7.83;;
35743;SDS011;21867;52.012;4.324;2023-10-13T00:40:49;13.37;;;8.67;;
35743;SDS011;21867;52.012;4.324;2023-10-13T00:43:16;15.40;;;8.70;;
35743;SDS011;21867;52.012;4.324;2023-10-13T00:45:46;13.67;;;9.43;;
35743;SDS011;21867;52.012;4.324;2023-10-13T00:48:13;14.10;;;10.00;;
35743;SDS011;21867;52.012;4.324;2023-10-13T00:56:57;10.93;;;9.83;;
35743;SDS011;21867;52.012;4.324;2023-10-13T00:59:25;11.80;;;8.90;;
35743;SDS011;21867;52.012;4.324;2023-10-13T01:01:54;13.50;;;9.63;;
35743;SDS011;21867;52.012;4.324;2023-10-13T01:04:21;11.07;;;9.97;;
35743;SDS011;21867;52.012;4.324;2023-10-13T01:06:49;11.87;;;9.60;;
35743;SDS011;21867;52.012;4.324;2023-10-13T01:09:40;13.00;;;9.47;;
35743;SDS011;21867;52.012;4.324;2023-10-13T01:12:07;9.97;;;7.20;;
35743;SDS011;21867;52.012;4.324;2023-10-13T01:14:34;11.40;;;8.63;;
35743;SDS011;21867;52.012;4.324;2023-10-13T01:17:03;13.77;;;8.10;;
35743;SDS011;21867;52.012;4.324;2023-10-13T01:23:07;11.47;;;6.50;;
35743;SDS011;21867;52.012;4.324;2023-10-13T01:25:35;11.27;;;6.47;;
35743;SDS011;21867;52.012;4.324;2023-10-13T01:28:02;10.47;;;6.70;;
35743;SDS011;21867;52.012;4.324;2023-10-13T01:30:30;9.77;;;6.67;;
35743;SDS011;21867;52.012;4.324;2023-10-13T01:32:57;16.10;;;6.87;;
35743;SDS011;21867;52.012;4.324;2023-10-13T01:35:24;20.47;;;8.57;;
35743;SDS011;21867;52.012;4.324;2023-10-13T01:37:52;12.30;;;7.70;;
35743;SDS011;21867;52.012;4.324;2023-10-13T01:40:21;16.67;;;8.30;;
35743;SDS011;21867;52.012;4.324;2023-10-13T01:42:48;12.47;;;7.83;;
35743;SDS011;21867;52.012;4.324;2023-10-13T01:45:16;12.13;;;7.80;;
35743;SDS011;21867;52.012;4.324;2023-10-13T01:47:43;15.40;;;8.63;;
35743;SDS011;21867;52.012;4.324;2023-10-13T01:50:13;10.47;;;8.67;;
35743;SDS011;21867;52.012;4.324;2023-10-13T01:52:43;15.70;;;8.57;;
35743;SDS011;21867;52.012;4.324;2023-10-13T01:55:14;9.90;;;8.30;;
35743;SDS011;21867;52.012;4.324;2023-10-13T01:57:43;10.00;;;8.37;;
35743;SDS011;21867;52.012;4.324;2023-10-13T02:00:11;12.53;;;8.43;;
35743;SDS011;21867;52.012;4.324;2023-10-13T02:02:38;12.13;;;7.63;;
35743;SDS011;21867;52.012;4.324;2023-10-13T02:05:09;12.23;;;7.90;;
35743;SDS011;21867;52.012;4.324;2023-10-13T02:07:42;18.83;;;8.10;;
35743;SDS011;21867;52.012;4.324;2023-10-13T02:10:11;13.90;;;7.53;;
35743;SDS011;21867;52.012;4.324;2023-10-13T02:12:39;10.50;;;6.77;;
35743;SDS011;21867;52.012;4.324;2023-10-13T02:15:08;9.27;;;6.17;;
35743;SDS011;21867;52.012;4.324;2023-10-13T02:17:35;10.13;;;6.17;;
35743;SDS011;21867;52.012;4.324;2023-10-13T02:20:03;10.77;;;5.90;;
35743;SDS011;21867;52.012;4.324;2023-10-13T02:22:32;8.23;;;6.00;;
35743;SDS011;21867;52.012;4.324;2023-10-13T02:25:00;9.03;;;6.60;;
35743;SDS011;21867;52.012;4.324;2023-10-13T02:27:27;11.00;;;6.70;;
35743;SDS011;21867;52.012;4.324;2023-10-13T02:29:54;10.77;;;6.53;;
35743;SDS011;21867;52.012;4.324;2023-10-13T02:32:29;10.27;;;6.43;;
35743;SDS011;21867;52.012;4.324;2023-10-13T02:34:57;10.67;;;6.13;;
35743;SDS011;21867;52.012;4.324;2023-10-13T02:37:24;18.33;;;9.47;;
35743;SDS011;21867;52.012;4.324;2023-10-13T02:39:51;9.00;;;6.10;;
35743;SDS011;21867;52.012;4.324;2023-10-13T02:42:19;10.93;;;6.50;;
35743;SDS011;21867;52.012;4.324;2023-10-13T02:44:46;7.57;;;6.60;;
35743;SDS011;21867;52.012;4.324;2023-10-13T02:47:13;11.93;;;6.50;;
35743;SDS011;21867;52.012;4.324;2023-10-13T02:49:42;13.60;;;6.53;;
35743;SDS011;21867;52.012;4.324;2023-10-13T02:54:53;8.93;;;5.47;;
35743;SDS011;21867;52.012;4.324;2023-10-13T02:57:20;8.00;;;6.50;;
35743;SDS011;21867;52.012;4.324;2023-10-13T02:59:48;9.07;;;6.03;;
35743;SDS011;21867;52.012;4.324;2023-10-13T03:02:15;14.13;;;7.43;;
35743;SDS011;21867;52.012;4.324;2023-10-13T03:04:46;10.80;;;6.70;;
35743;SDS011;21867;52.012;4.324;2023-10-13T03:13:37;9.67;;;5.87;;
35743;SDS011;21867;52.012;4.324;2023-10-13T03:16:10;6.47;;;4.07;;
35743;SDS011;21867;52.012;4.324;2023-10-13T03:18:38;8.00;;;5.53;;
35743;SDS011;21867;52.012;4.324;2023-10-13T03:21:08;9.60;;;4.43;;
35743;SDS011;21867;52.012;4.324;2023-10-13T03:23:35;6.33;;;3.43;;
35743;SDS011;21867;52.012;4.324;2023-10-13T03:28:58;8.47;;;2.57;;
35743;SDS011;21867;52.012;4.324;2023-10-13T03:31:26;4.23;;;2.33;;
35743;SDS011;21867;52.012;4.324;2023-10-13T03:33:53;3.10;;;1.90;;
35743;SDS011;21867;52.012;4.324;2023-10-13T03:36:22;5.27;;;2.77;;
35743;SDS011;21867;52.012;4.324;2023-10-13T03:45:05;3.97;;;2.93;;
35743;SDS011;21867;52.012;4.324;2023-10-13T03:47:32;5.10;;;3.07;;
35743;SDS011;21867;52.012;4.324;2023-10-13T03:49:59;4.53;;;3.30;;
35743;SDS011;21867;52.012;4.324;2023-10-13T03:52:28;4.43;;;3.63;;
35743;SDS011;21867;52.012;4.324;2023-10-13T03:54:55;5.50;;;3.40;;
35743;SDS011;21867;52.012;4.324;2023-10-13T04:00:09;4.60;;;4.10;;
35743;SDS011;21867;52.012;4.324;2023-10-13T04:02:37;6.10;;;4.50;;
35743;SDS011;21867;52.012;4.324;2023-10-13T04:05:05;6.40;;;5.73;;
35743;SDS011;21867;52.012;4.324;2023-10-13T04:11:14;7.77;;;6.20;;
35743;SDS011;21867;52.012;4.324;2023-10-13T04:13:42;7.73;;;5.60;;
35743;SDS011;21867;52.012;4.324;2023-10-13T04:16:09;6.90;;;6.13;;
35743;SDS011;21867;52.012;4.324;2023-10-13T04:18:37;9.10;;;5.97;;
35743;SDS011;21867;52.012;4.324;2023-10-13T04:21:04;9.33;;;7.07;;
35743;SDS011;21867;52.012;4.324;2023-10-13T04:23:32;6.60;;;5.60;;
35743;SDS011;21867;52.012;4.324;2023-10-13T04:28:49;9.00;;;6.40;;
35743;SDS011;21867;52.012;4.324;2023-10-13T04:31:17;8.27;;;6.57;;
35743;SDS011;21867;52.012;4.324;2023-10-13T04:33:44;9.40;;;5.83;;
35743;SDS011;21867;52.012;4.324;2023-10-13T04:42:57;9.03;;;5.13;;
35743;SDS011;21867;52.012;4.324;2023-10-13T04:45:26;9.67;;;4.27;;
35743;SDS011;21867;52.012;4.324;2023-10-13T04:47:53;9.70;;;4.37;;
35743;SDS011;21867;52.012;4.324;2023-10-13T04:50:21;6.27;;;3.83;;
35743;SDS011;21867;52.012;4.324;2023-10-13T04:52:48;10.03;;;4.13;;
35743;SDS011;21867;52.012;4.324;2023-10-13T04:55:15;8.80;;;4.27;;
35743;SDS011;21867;52.012;4.324;2023-10-13T04:57:43;11.50;;;4.40;;
35743;SDS011;21867;52.012;4.324;2023-10-13T05:00:11;11.33;;;4.63;;
35743;SDS011;21867;52.012;4.324;2023-10-13T05:02:40;7.87;;;4.13;;
35743;SDS011;21867;52.012;4.324;2023-10-13T05:05:08;10.50;;;4.33;;
35743;SDS011;21867;52.012;4.324;2023-10-13T05:07:36;11.73;;;4.93;;
35743;SDS011;21867;52.012;4.324;2023-10-13T05:10:05;13.53;;;4.23;;
35743;SDS011;21867;52.012;4.324;2023-10-13T05:12:32;10.30;;;4.50;;
35743;SDS011;21867;52.012;4.324;2023-10-13T05:14:59;6.73;;;3.60;;
35743;SDS011;21867;52.012;4.324;2023-10-13T05:17:27;11.90;;;5.07;;
35743;SDS011;21867;52.012;4.324;2023-10-13T05:19:57;8.17;;;3.63;;
35743;SDS011;21867;52.012;4.324;2023-10-13T05:22:24;12.77;;;5.00;;
35743;SDS011;21867;52.012;4.324;2023-10-13T05:24:52;10.83;;;3.67;;
35743;SDS011;21867;52.012;4.324;2023-10-13T05:27:19;12.13;;;4.30;;
35743;SDS011;21867;52.012;4.324;2023-10-13T05:29:47;13.47;;;3.70;;
35743;SDS011;21867;52.012;4.324;2023-10-13T05:32:14;10.77;;;3.63;;
35743;SDS011;21867;52.012;4.324;2023-10-13T05:34:42;13.70;;;4.43;;
35743;SDS011;21867;52.012;4.324;2023-10-13T05:37:11;8.97;;;3.90;;
35743;SDS011;21867;52.012;4.324;2023-10-13T05:39:39;9.90;;;4.72;;
35743;SDS011;21867;52.012;4.324;2023-10-13T05:42:06;13.53;;;4.20;;
35743;SDS011;21867;52.012;4.324;2023-10-13T05:44:33;15.23;;;4.20;;
35743;SDS011;21867;52.012;4.324;2023-10-13T05:47:01;11.27;;;3.30;;
35743;SDS011;21867;52.012;4.324;2023-10-13T05:49:28;9.50;;;3.73;;
35743;SDS011;21867;52.012;4.324;2023-10-13T05:51:56;5.53;;;3.33;;
35743;SDS011;21867;52.012;4.324;2023-10-13T05:54:24;13.37;;;4.00;;
35743;SDS011;21867;52.012;4.324;2023-10-13T05:56:51;9.87;;;3.83;;
35743;SDS011;21867;52.012;4.324;2023-10-13T05:59:19;9.60;;;4.57;;
35743;SDS011;21867;52.012;4.324;2023-10-13T06:01:46;12.87;;;4.50;;
35743;SDS011;21867;52.012;4.324;2023-10-13T06:04:14;5.83;;;3.70;;
35743;SDS011;21867;52.012;4.324;2023-10-13T06:06:41;9.40;;;3.93;;
35743;SDS011;21867;52.012;4.324;2023-10-13T06:09:09;10.80;;;4.00;;
35743;SDS011;21867;52.012;4.324;2023-10-13T06:11:37;10.57;;;4.90;;
35743;SDS011;21867;52.012;4.324;2023-10-13T06:14:05;7.93;;;4.40;;
35743;SDS011;21867;52.012;4.324;2023-10-13T06:16:32;7.30;;;4.53;;
35743;SDS011;21867;52.012;4.324;2023-10-13T06:19:00;9.68;;;5.50;;
35743;SDS011;21867;52.012;4.324;2023-10-13T06:21:27;13.30;;;5.10;;
35743;SDS011;21867;52.012;4.324;2023-10-13T06:23:54;8.93;;;4.33;;
35743;SDS011;21867;52.012;4.324;2023-10-13T06:26:22;8.97;;;3.90;;
35743;SDS011;21867;52.012;4.324;2023-10-13T06:28:50;13.80;;;4.43;;
35743;SDS011;21867;52.012;4.324;2023-10-13T06:31:18;15.77;;;5.10;;
35743;SDS011;21867;52.012;4.324;2023-10-13T06:33:45;13.47;;;5.90;;
35743;SDS011;21867;52.012;4.324;2023-10-13T06:36:13;10.77;;;5.80;;
35743;SDS011;21867;52.012;4.324;2023-10-13T06:38:40;11.87;;;6.23;;
35743;SDS011;21867;52.012;4.324;2023-10-13T06:41:08;8.20;;;7.13;;
35743;SDS011;21867;52.012;4.324;2023-10-13T06:43:36;10.57;;;7.43;;
35743;SDS011;21867;52.012;4.324;2023-10-13T06:46:04;13.07;;;7.97;;
35743;SDS011;21867;52.012;4.324;2023-10-13T06:48:32;9.90;;;7.47;;
35743;SDS011;21867;52.012;4.324;2023-10-13T06:51:00;9.70;;;7.30;;
35743;SDS011;21867;52.012;4.324;2023-10-13T06:53:27;9.40;;;7.27;;
35743;SDS011;21867;52.012;4.324;2023-10-13T06:55:54;11.47;;;6.80;;
35743;SDS011;21867;52.012;4.324;2023-10-13T06:58:22;10.43;;;6.77;;
35743;SDS011;21867;52.012;4.324;2023-10-13T07:00:49;10.27;;;6.20;;
35743;SDS011;21867;52.012;4.324;2023-10-13T07:03:20;11.83;;;6.57;;
35743;SDS011;21867;52.012;4.324;2023-10-13T07:05:47;9.50;;;5.27;;
35743;SDS011;21867;52.012;4.324;2023-10-13T07:08:14;14.63;;;6.87;;
35743;SDS011;21867;52.012;4.324;2023-10-13T07:10:46;9.27;;;5.93;;
35743;SDS011;21867;52.012;4.324;2023-10-13T07:13:14;10.17;;;5.30;;
35743;SDS011;21867;52.012;4.324;2023-10-13T07:15:41;10.77;;;6.40;;
35743;SDS011;21867;52.012;4.324;2023-10-13T07:18:09;12.83;;;5.93;;
35743;SDS011;21867;52.012;4.324;2023-10-13T07:20:37;13.97;;;5.87;;
35743;SDS011;21867;52.012;4.324;2023-10-13T07:23:05;10.67;;;6.67;;
35743;SDS011;21867;52.012;4.324;2023-10-13T07:25:32;11.10;;;5.73;;
35743;SDS011;21867;52.012;4.324;2023-10-13T07:28:00;12.20;;;6.60;;
35743;SDS011;21867;52.012;4.324;2023-10-13T07:30:28;14.97;;;6.53;;
35743;SDS011;21867;52.012;4.324;2023-10-13T07:32:55;11.80;;;5.97;;
35743;SDS011;21867;52.012;4.324;2023-10-13T07:35:31;9.77;;;5.90;;
35743;SDS011;21867;52.012;4.324;2023-10-13T07:43:42;11.27;;;6.57;;
35743;SDS011;21867;52.012;4.324;2023-10-13T07:46:10;10.50;;;6.17;;
35743;SDS011;21867;52.012;4.324;2023-10-13T07:48:37;12.00;;;5.93;;
35743;SDS011;21867;52.012;4.324;2023-10-13T07:53:54;15.70;;;6.17;;
35743;SDS011;21867;52.012;4.324;2023-10-13T07:59:09;17.87;;;6.83;;
35743;SDS011;21867;52.012;4.324;2023-10-13T08:01:36;11.73;;;5.80;;
35743;SDS011;21867;52.012;4.324;2023-10-13T08:04:04;16.67;;;6.17;;
35743;SDS011;21867;52.012;4.324;2023-10-13T08:10:07;11.37;;;6.57;;
35743;SDS011;21867;52.012;4.324;2023-10-13T08:12:35;14.13;;;6.83;;
35743;SDS011;21867;52.012;4.324;2023-10-13T08:15:04;11.77;;;6.50;;
35743;SDS011;21867;52.012;4.324;2023-10-13T08:17:32;16.73;;;7.32;;
35743;SDS011;21867;52.012;4.324;2023-10-13T08:19:59;15.90;;;6.23;;
35743;SDS011;21867;52.012;4.324;2023-10-13T08:22:26;16.40;;;6.97;;
35743;SDS011;21867;52.012;4.324;2023-10-13T08:27:43;10.67;;;5.33;;
35743;SDS011;21867;52.012;4.324;2023-10-13T08:30:12;17.30;;;6.40;;
35743;SDS011;21867;52.012;4.324;2023-10-13T08:32:39;15.00;;;6.00;;
35743;SDS011;21867;52.012;4.324;2023-10-13T08:42:10;17.67;;;7.43;;
35743;SDS011;21867;52.012;4.324;2023-10-13T08:44:39;14.93;;;4.50;;
35743;SDS011;21867;52.012;4.324;2023-10-13T08:47:12;12.27;;;5.53;;
35743;SDS011;21867;52.012;4.324;2023-10-13T08:49:41;10.40;;;5.13;;
35743;SDS011;21867;52.012;4.324;2023-10-13T08:52:09;13.73;;;6.10;;
35743;SDS011;21867;52.012;4.324;2023-10-13T08:57:22;15.80;;;5.60;;
35743;SDS011;21867;52.012;4.324;2023-10-13T08:59:49;18.23;;;6.57;;
35743;SDS011;21867;52.012;4.324;2023-10-13T09:02:18;15.27;;;6.13;;
35743;SDS011;21867;52.012;4.324;2023-10-13T09:04:48;24.17;;;6.57;;
35743;SDS011;21867;52.012;4.324;2023-10-13T09:07:16;16.10;;;5.80;;
35743;SDS011;21867;52.012;4.324;2023-10-13T09:09:55;13.87;;;5.47;;
35743;SDS011;21867;52.012;4.324;2023-10-13T09:12:36;13.53;;;6.17;;
35743;SDS011;21867;52.012;4.324;2023-10-13T09:15:09;24.70;;;5.80;;
35743;SDS011;21867;52.012;4.324;2023-10-13T09:17:41;12.37;;;5.50;;
35743;SDS011;21867;52.012;4.324;2023-10-13T09:20:09;14.57;;;5.20;;
35743;SDS011;21867;52.012;4.324;2023-10-13T09:22:39;12.03;;;5.93;;
35743;SDS011;21867;52.012;4.324;2023-10-13T09:27:53;15.93;;;6.33;;
35743;SDS011;21867;52.012;4.324;2023-10-13T09:30:20;7.90;;;5.37;;
35743;SDS011;21867;52.012;4.324;2023-10-13T09:32:49;15.77;;;5.93;;
35743;SDS011;21867;52.012;4.324;2023-10-13T09:35:26;13.90;;;5.90;;
35743;SDS011;21867;52.012;4.324;2023-10-13T09:37:53;11.73;;;5.27;;
35743;SDS011;21867;52.012;4.324;2023-10-13T09:43:07;15.50;;;5.17;;
35743;SDS011;21867;52.012;4.324;2023-10-13T09:45:35;15.83;;;6.27;;
35743;SDS011;21867;52.012;4.324;2023-10-13T09:48:04;15.73;;;5.20;;
35743;SDS011;21867;52.012;4.324;2023-10-13T09:57:00;12.60;;;6.70;;
35743;SDS011;21867;52.012;4.324;2023-10-13T09:59:31;16.27;;;5.80;;
35743;SDS011;21867;52.012;4.324;2023-10-13T10:01:59;11.80;;;5.87;;
35743;SDS011;21867;52.012;4.324;2023-10-13T10:04:28;18.33;;;6.33;;
35743;SDS011;21867;52.012;4.324;2023-10-13T10:06:55;13.00;;;4.90;;
35743;SDS011;21867;52.012;4.324;2023-10-13T10:09:29;9.57;;;5.27;;
35743;SDS011;21867;52.012;4.324;2023-10-13T10:12:03;18.97;;;6.33;;
35743;SDS011;21867;52.012;4.324;2023-10-13T10:14:47;14.15;;;6.00;;
35743;SDS011;21867;52.012;4.324;2023-10-13T10:17:19;13.83;;;6.00;;
35743;SDS011;21867;52.012;4.324;2023-10-13T10:23:36;8.53;;;5.67;;
35743;SDS011;21867;52.012;4.324;2023-10-13T10:26:13;16.63;;;5.43;;
35743;SDS011;21867;52.012;4.324;2023-10-13T10:28:41;14.20;;;6.40;;
35743;SDS011;21867;52.012;4.324;2023-10-13T10:31:09;16.57;;;6.33;;
35743;SDS011;21867;52.012;4.324;2023-10-13T10:33:37;15.60;;;6.20;;
35743;SDS011;21867;52.012;4.324;2023-10-13T10:36:04;11.03;;;5.87;;
35743;SDS011;21867;52.012;4.324;2023-10-13T10:38:32;17.10;;;7.37;;
35743;SDS011;21867;52.012;4.324;2023-10-13T10:41:10;8.97;;;5.33;;
35743;SDS011;21867;52.012;4.324;2023-10-13T10:43:37;16.93;;;6.37;;
35743;SDS011;21867;52.012;4.324;2023-10-13T10:46:04;15.40;;;5.90;;
35743;SDS011;21867;52.012;4.324;2023-10-13T10:48:32;13.23;;;5.70;;
35743;SDS011;21867;52.012;4.324;2023-10-13T10:57:06;16.57;;;7.20;;
35743;SDS011;21867;52.012;4.324;2023-10-13T10:59:34;17.47;;;6.33;;
35743;SDS011;21867;52.012;4.324;2023-10-13T11:02:01;17.07;;;6.80;;
35743;SDS011;21867;52.012;4.324;2023-10-13T11:04:28;21.80;;;6.37;;
35743;SDS011;21867;52.012;4.324;2023-10-13T11:06:56;10.40;;;6.30;;
35743;SDS011;21867;52.012;4.324;2023-10-13T11:12:14;14.33;;;6.33;;
35743;SDS011;21867;52.012;4.324;2023-10-13T11:14:42;17.83;;;6.90;;
35743;SDS011;21867;52.012;4.324;2023-10-13T11:17:10;18.50;;;6.70;;
35743;SDS011;21867;52.012;4.324;2023-10-13T11:26:32;12.73;;;6.47;;
35743;SDS011;21867;52.012;4.324;2023-10-13T11:29:03;15.93;;;6.60;;
35743;SDS011;21867;52.012;4.324;2023-10-13T11:31:31;11.90;;;6.13;;
35743;SDS011;21867;52.012;4.324;2023-10-13T11:33:58;23.33;;;7.17;;
35743;SDS011;21867;52.012;4.324;2023-10-13T11:36:25;13.00;;;5.70;;
35743;SDS011;21867;52.012;4.324;2023-10-13T11:41:41;13.47;;;7.00;;
35743;SDS011;21867;52.012;4.324;2023-10-13T11:44:10;26.57;;;6.13;;
35743;SDS011;21867;52.012;4.324;2023-10-13T11:46:37;15.53;;;6.33;;
35743;SDS011;21867;52.012;4.324;2023-10-13T11:52:40;13.20;;;5.77;;
35743;SDS011;21867;52.012;4.324;2023-10-13T11:55:08;12.83;;;5.93;;
35743;SDS011;21867;52.012;4.324;2023-10-13T11:57:35;17.33;;;6.17;;
35743;SDS011;21867;52.012;4.324;2023-10-13T12:00:05;14.00;;;6.20;;
35743;SDS011;21867;52.012;4.324;2023-10-13T12:02:37;13.40;;;5.97;;
35743;SDS011;21867;52.012;4.324;2023-10-13T12:05:05;15.53;;;7.30;;
35743;SDS011;21867;52.012;4.324;2023-10-13T12:10:16;13.57;;;5.77;;
35743;SDS011;21867;52.012;4.324;2023-10-13T12:12:44;16.70;;;7.13;;
35743;SDS011;21867;52.012;4.324;2023-10-13T12:15:12;20.00;;;6.80;;
35743;SDS011;21867;52.012;4.324;2023-10-13T12:17:40;17.20;;;6.63;;
35743;SDS011;21867;52.012;4.324;2023-10-13T12:20:23;10.37;;;7.03;;
35743;SDS011;21867;52.012;4.324;2023-10-13T12:23:33;12.20;;;6.07;;
35743;SDS011;21867;52.012;4.324;2023-10-13T12:26:01;12.33;;;6.33;;
35743;SDS011;21867;52.012;4.324;2023-10-13T12:28:29;15.87;;;7.17;;
35743;SDS011;21867;52.012;4.324;2023-10-13T12:31:02;17.20;;;7.73;;
35743;SDS011;21867;52.012;4.324;2023-10-13T12:33:30;17.23;;;6.40;;
35743;SDS011;21867;52.012;4.324;2023-10-13T12:35:58;14.63;;;6.23;;
35743;SDS011;21867;52.012;4.324;2023-10-13T12:38:34;16.50;;;6.67;;
35743;SDS011;21867;52.012;4.324;2023-10-13T12:41:04;20.47;;;6.83;;
35743;SDS011;21867;52.012;4.324;2023-10-13T12:43:31;20.23;;;7.13;;
35743;SDS011;21867;52.012;4.324;2023-10-13T12:46:00;18.10;;;5.53;;
35743;SDS011;21867;52.012;4.324;2023-10-13T12:48:37;16.13;;;7.63;;
35743;SDS011;21867;52.012;4.324;2023-10-13T12:51:06;17.20;;;6.97;;
35743;SDS011;21867;52.012;4.324;2023-10-13T12:56:21;14.20;;;6.60;;
35743;SDS011;21867;52.012;4.324;2023-10-13T12:58:48;18.17;;;6.83;;
35743;SDS011;21867;52.012;4.324;2023-10-13T13:01:17;16.87;;;6.50;;
35743;SDS011;21867;52.012;4.324;2023-10-13T13:03:44;15.73;;;6.37;;
35743;SDS011;21867;52.012;4.324;2023-10-13T13:06:15;16.97;;;6.77;;
35743;SDS011;21867;52.012;4.324;2023-10-13T13:08:55;19.87;;;7.00;;
35743;SDS011;21867;52.012;4.324;2023-10-13T13:11:22;15.33;;;5.73;;
35743;SDS011;21867;52.012;4.324;2023-10-13T13:13:52;17.17;;;6.17;;
35743;SDS011;21867;52.012;4.324;2023-10-13T13:16:21;19.57;;;7.50;;
35743;SDS011;21867;52.012;4.324;2023-10-13T13:22:30;15.17;;;6.83;;
35743;SDS011;21867;52.012;4.324;2023-10-13T13:24:57;19.93;;;7.07;;
35743;SDS011;21867;52.012;4.324;2023-10-13T13:27:25;18.93;;;6.93;;
35743;SDS011;21867;52.012;4.324;2023-10-13T13:29:52;16.53;;;6.20;;
35743;SDS011;21867;52.012;4.324;2023-10-13T13:32:24;18.20;;;6.00;;
35743;SDS011;21867;52.012;4.324;2023-10-13T13:34:52;15.10;;;6.23;;
35743;SDS011;21867;52.012;4.324;2023-10-13T13:37:25;21.97;;;7.93;;
35743;SDS011;21867;52.012;4.324;2023-10-13T13:39:52;13.57;;;6.17;;
35743;SDS011;21867;52.012;4.324;2023-10-13T13:42:20;19.33;;;6.27;;
35743;SDS011;21867;52.012;4.324;2023-10-13T13:44:47;12.90;;;6.77;;
35743;SDS011;21867;52.012;4.324;2023-10-13T13:56:23;19.37;;;6.27;;
35743;SDS011;21867;52.012;4.324;2023-10-13T13:58:51;18.17;;;6.77;;
35743;SDS011;21867;52.012;4.324;2023-10-13T14:01:19;21.53;;;7.07;;
35743;SDS011;21867;52.012;4.324;2023-10-13T14:03:47;14.47;;;6.40;;
35743;SDS011;21867;52.012;4.324;2023-10-13T14:06:15;12.47;;;5.33;;
35743;SDS011;21867;52.012;4.324;2023-10-13T14:11:33;15.57;;;5.03;;
35743;SDS011;21867;52.012;4.324;2023-10-13T14:14:00;21.77;;;5.50;;
35743;SDS011;21867;52.012;4.324;2023-10-13T14:16:28;20.13;;;5.93;;
35743;SDS011;21867;52.012;4.324;2023-10-13T14:25:40;23.67;;;5.37;;
35743;SDS011;21867;52.012;4.324;2023-10-13T14:28:09;18.97;;;4.47;;
35743;SDS011;21867;52.012;4.324;2023-10-13T14:30:36;16.67;;;5.27;;
35743;SDS011;21867;52.012;4.324;2023-10-13T14:33:04;14.57;;;4.40;;
35743;SDS011;21867;52.012;4.324;2023-10-13T14:35:35;23.53;;;5.67;;
35743;SDS011;21867;52.012;4.324;2023-10-13T14:38:02;16.33;;;5.40;;
35743;SDS011;21867;52.012;4.324;2023-10-13T14:40:30;24.50;;;7.37;;
35743;SDS011;21867;52.012;4.324;2023-10-13T14:42:57;19.60;;;5.47;;
35743;SDS011;21867;52.012;4.324;2023-10-13T14:45:26;16.60;;;5.60;;
35743;SDS011;21867;52.012;4.324;2023-10-13T14:47:53;22.87;;;8.13;;
35743;SDS011;21867;52.012;4.324;2023-10-13T14:50:21;22.83;;;8.60;;
35743;SDS011;21867;52.012;4.324;2023-10-13T14:52:50;18.27;;;7.47;;
35743;SDS011;21867;52.012;4.324;2023-10-13T14:55:18;15.73;;;6.10;;
35743;SDS011;21867;52.012;4.324;2023-10-13T14:57:46;22.30;;;7.70;;
35743;SDS011;21867;52.012;4.324;2023-10-13T15:00:13;21.10;;;8.13;;
35743;SDS011;21867;52.012;4.324;2023-10-13T15:02:44;26.33;;;7.77;;
35743;SDS011;21867;52.012;4.324;2023-10-13T15:05:12;23.70;;;8.30;;
35743;SDS011;21867;52.012;4.324;2023-10-13T15:07:39;19.37;;;7.80;;
35743;SDS011;21867;52.012;4.324;2023-10-13T15:10:07;21.13;;;8.00;;
35743;SDS011;21867;52.012;4.324;2023-10-13T15:12:34;22.63;;;7.63;;
35743;SDS011;21867;52.012;4.324;2023-10-13T15:15:01;22.53;;;7.77;;
35743;SDS011;21867;52.012;4.324;2023-10-13T15:17:29;23.33;;;7.63;;
35743;SDS011;21867;52.012;4.324;2023-10-13T15:19:58;23.27;;;7.87;;
35743;SDS011;21867;52.012;4.324;2023-10-13T15:22:26;22.50;;;8.17;;
35743;SDS011;21867;52.012;4.324;2023-10-13T15:24:53;27.73;;;9.90;;
35743;SDS011;21867;52.012;4.324;2023-10-13T15:27:21;35.00;;;8.60;;
35743;SDS011;21867;52.012;4.324;2023-10-13T15:29:48;26.00;;;8.23;;
35743;SDS011;21867;52.012;4.324;2023-10-13T15:32:15;19.67;;;8.17;;
35743;SDS011;21867;52.012;4.324;2023-10-13T15:34:43;20.53;;;7.90;;
35743;SDS011;21867;52.012;4.324;2023-10-13T15:37:12;28.97;;;7.93;;
35743;SDS011;21867;52.012;4.324;2023-10-13T15:39:39;27.70;;;8.03;;
35743;SDS011;21867;52.012;4.324;2023-10-13T15:42:06;20.30;;;7.53;;
35743;SDS011;21867;52.012;4.324;2023-10-13T15:44:34;18.77;;;7.83;;
35743;SDS011;21867;52.012;4.324;2023-10-13T15:47:01;21.37;;;8.20;;
35743;SDS011;21867;52.012;4.324;2023-10-13T15:50:13;23.43;;;8.77;;
35743;SDS011;21867;52.012;4.324;2023-10-13T15:52:43;26.83;;;7.47;;
35743;SDS011;21867;52.012;4.324;2023-10-13T15:55:12;18.23;;;8.50;;
35743;SDS011;21867;52.012;4.324;2023-10-13T15:57:40;28.43;;;8.23;;
35743;SDS011;21867;52.012;4.324;2023-10-13T16:00:08;27.13;;;8.53;;
35743;SDS011;21867;52.012;4.324;2023-10-13T16:02:43;23.27;;;8.37;;
35743;SDS011;21867;52.012;4.324;2023-10-13T16:05:11;22.93;;;8.43;;
35743;SDS011;21867;52.012;4.324;2023-10-13T16:07:38;20.47;;;8.13;;
35743;SDS011;21867;52.012;4.324;2023-10-13T16:10:08;16.30;;;8.97;;
35743;SDS011;21867;52.012;4.324;2023-10-13T16:12:35;22.70;;;7.37;;
35743;SDS011;21867;52.012;4.324;2023-10-13T16:15:02;17.27;;;7.53;;
35743;SDS011;21867;52.012;4.324;2023-10-13T16:17:30;18.10;;;7.07;;
35743;SDS011;21867;52.012;4.324;2023-10-13T16:19:57;17.63;;;6.97;;
35743;SDS011;21867;52.012;4.324;2023-10-13T16:25:18;14.73;;;6.77;;
35743;SDS011;21867;52.012;4.324;2023-10-13T16:27:46;18.37;;;7.50;;
35743;SDS011;21867;52.012;4.324;2023-10-13T16:30:13;17.07;;;7.23;;
35743;SDS011;21867;52.012;4.324;2023-10-13T16:39:26;16.30;;;6.43;;
35743;SDS011;21867;52.012;4.324;2023-10-13T16:41:54;17.43;;;7.70;;
35743;SDS011;21867;52.012;4.324;2023-10-13T16:44:22;19.90;;;7.23;;
35743;SDS011;21867;52.012;4.324;2023-10-13T16:46:49;12.83;;;6.60;;
35743;SDS011;21867;52.012;4.324;2023-10-13T16:49:16;23.00;;;7.50;;
35743;SDS011;21867;52.012;4.324;2023-10-13T16:51:44;17.87;;;7.77;;
35743;SDS011;21867;52.012;4.324;2023-10-13T16:54:11;15.90;;;6.40;;
35743;SDS011;21867;52.012;4.324;2023-10-13T16:56:38;11.43;;;5.53;;
35743;SDS011;21867;52.012;4.324;2023-10-13T16:59:07;19.60;;;6.77;;
35743;SDS011;21867;52.012;4.324;2023-10-13T17:01:34;15.03;;;6.13;;
35743;SDS011;21867;52.012;4.324;2023-10-13T17:04:02;21.10;;;8.37;;
35743;SDS011;21867;52.012;4.324;2023-10-13T17:09:18;13.13;;;5.20;;
35743;SDS011;21867;52.012;4.324;2023-10-13T17:11:46;12.50;;;6.13;;
35743;SDS011;21867;52.012;4.324;2023-10-13T17:14:15;11.37;;;4.70;;
35743;SDS011;21867;52.012;4.324;2023-10-13T17:16:42;9.40;;;5.00;;
35743;SDS011;21867;52.012;4.324;2023-10-13T17:19:09;17.30;;;7.03;;
35743;SDS011;21867;52.012;4.324;2023-10-13T17:24:30;16.00;;;5.60;;
35743;SDS011;21867;52.012;4.324;2023-10-13T17:30:09;15.20;;;6.30;;
35743;SDS011;21867;52.012;4.324;2023-10-13T17:32:37;13.87;;;5.17;;